Time;durP1;ratioP1;P1;durP2;ratioP2;P2;SDS_P1;SDS_P2;PMS_P1;PMS_P2;Temp;Humidity;BMP_temperature;BMP_pressure;BME280_temperature;BME280_humidity;BME280_pressure;Samples;Min_cycle;Max_cycle;Signal;HPM_P1;HPM_P2
2023/08/10 00:01:45;;;;;;;1.30;1.20;;;23.40;90.90;;;;;;4937883;29;20549;-90
2023/08/10 00:04:12;;;;;;;1.43;1.20;;;23.40;90.90;;;;;;4937886;29;20968;-90
2023/08/10 00:06:39;;;;;;;1.30;1.20;;;23.40;90.90;;;;;;4937838;29;20445;-91
2023/08/10 00:09:07;;;;;;;1.63;1.27;;;23.40;90.90;;;;;;4937765;29;20975;-92
2023/08/10 00:11:34;;;;;;;1.20;1.10;;;23.40;91.00;;;;;;4937846;29;20962;-91
2023/08/10 00:14:03;;;;;;;1.13;1.03;;;23.40;90.90;;;;;;4937973;29;20443;-91
2023/08/10 00:16:30;;;;;;;1.47;1.37;;;23.40;90.90;;;;;;4937684;29;20453;-91
2023/08/10 00:18:57;;;;;;;1.27;1.00;;;23.50;91.00;;;;;;4937827;29;20459;-90
2023/08/10 00:21:24;;;;;;;1.33;1.23;;;23.40;90.90;;;;;;4937634;29;20453;-90
2023/08/10 00:23:51;;;;;;;1.20;1.03;;;23.40;90.90;;;;;;4937296;29;20457;-91
2023/08/10 00:26:18;;;;;;;2.33;1.53;;;23.40;91.30;;;;;;4937579;29;20449;-91
2023/08/10 00:28:44;;;;;;;1.83;1.30;;;23.60;91.00;;;;;;4937468;29;20587;-92
2023/08/10 00:31:13;;;;;;;1.50;1.33;;;23.40;90.90;;;;;;4937410;29;20455;-93
2023/08/10 00:33:39;;;;;;;1.97;1.23;;;23.40;90.90;;;;;;4937128;29;20535;-90
2023/08/10 00:36:07;;;;;;;1.53;1.30;;;23.40;90.90;;;;;;4937489;29;20444;-92
2023/08/10 00:38:34;;;;;;;1.90;1.50;;;23.40;90.90;;;;;;4937089;29;20445;-91
2023/08/10 00:41:01;;;;;;;1.20;1.10;;;23.40;91.30;;;;;;4937259;29;20446;-92
2023/08/10 00:43:29;;;;;;;1.20;1.10;;;23.40;90.90;;;;;;4937120;29;20532;-90
2023/08/10 00:45:56;;;;;;;1.40;1.30;;;23.40;90.90;;;;;;4936878;29;20436;-90
2023/08/10 00:48:25;;;;;;;1.77;1.40;;;23.40;90.90;;;;;;4937027;29;20443;-90
2023/08/10 00:50:53;;;;;;;1.43;1.30;;;23.40;90.90;;;;;;4937337;29;20452;-92
2023/08/10 00:53:20;;;;;;;1.50;1.40;;;23.40;90.90;;;;;;4936736;29;20558;-91
2023/08/10 00:55:51;;;;;;;2.70;1.47;;;23.40;90.90;;;;;;4937090;29;20427;-90
2023/08/10 00:58:19;;;;;;;1.20;1.00;;;23.40;90.90;;;;;;4937139;29;20510;-91
2023/08/10 01:00:46;;;;;;;1.40;1.07;;;23.50;91.30;;;;;;4937186;29;20444;-93
2023/08/10 01:03:13;;;;;;;1.27;1.10;;;23.40;90.90;;;;;;4936875;29;20444;-92
2023/08/10 01:05:50;;;;;;;1.40;1.20;;;23.40;90.90;;;;;;4936863;29;20455;-93
2023/08/10 01:08:22;;;;;;;1.27;1.10;;;23.40;90.90;;;;;;4937116;29;20437;-91
2023/08/10 01:10:59;;;;;;;1.77;1.27;;;23.40;90.90;;;;;;4936959;29;20487;-91
2023/08/10 01:13:35;;;;;;;1.40;1.30;;;23.40;90.90;;;;;;4936935;29;20439;-91
2023/08/10 01:16:08;;;;;;;1.40;1.20;;;23.40;90.90;;;;;;4937102;29;20439;-91
2023/08/10 01:18:36;;;;;;;1.20;1.00;;;23.40;90.90;;;;;;4936978;29;20432;-92
2023/08/10 01:21:13;;;;;;;1.63;1.10;;;23.40;90.90;;;;;;4936592;29;20452;-92
2023/08/10 01:23:43;;;;;;;1.30;1.20;;;23.40;91.00;;;;;;4936868;29;20445;-91
2023/08/10 01:26:12;;;;;;;1.30;1.20;;;23.40;91.00;;;;;;4936891;29;20435;-92
2023/08/10 01:28:41;;;;;;;1.90;1.30;;;23.40;91.00;;;;;;4936297;29;20542;-92
2023/08/10 01:31:08;;;;;;;1.30;1.20;;;23.40;91.00;;;;;;4936525;29;20811;-92
2023/08/10 01:33:35;;;;;;;1.80;1.23;;;23.40;91.00;;;;;;4936720;29;20453;-91
2023/08/10 01:36:03;;;;;;;1.40;1.20;;;23.50;91.00;;;;;;4936774;29;20457;-91
2023/08/10 01:38:29;;;;;;;1.43;1.10;;;23.40;91.00;;;;;;4936670;29;20453;-91
2023/08/10 01:40:56;;;;;;;1.30;1.17;;;23.40;91.00;;;;;;4936569;29;20465;-92
2023/08/10 01:43:24;;;;;;;1.63;1.10;;;23.40;91.00;;;;;;4936566;29;20445;-92
2023/08/10 01:45:55;;;;;;;1.27;1.10;;;23.40;91.00;;;;;;4936171;29;20452;-91
2023/08/10 01:48:26;;;;;;;1.37;1.27;;;23.40;91.00;;;;;;4936350;29;20629;-92
2023/08/10 01:50:54;;;;;;;1.67;1.03;;;23.40;91.00;;;;;;4936061;29;20867;-91
2023/08/10 01:53:28;;;;;;;1.27;1.10;;;23.30;90.90;;;;;;4936206;29;20482;-91
2023/08/10 01:55:55;;;;;;;1.53;1.13;;;23.40;91.00;;;;;;4936246;29;20461;-90
2023/08/10 01:58:23;;;;;;;1.53;1.30;;;23.50;91.00;;;;;;4936089;29;20473;-91
2023/08/10 02:00:51;;;;;;;1.27;1.17;;;23.40;91.00;;;;;;4936103;29;20455;-92
2023/08/10 02:03:18;;;;;;;1.80;1.30;;;23.30;90.90;;;;;;4936786;29;20446;-92
2023/08/10 02:05:45;;;;;;;1.50;1.40;;;23.30;90.90;;;;;;4940097;29;20452;-91
2023/08/10 02:08:11;;;;;;;1.63;1.40;;;23.40;90.90;;;;;;4940166;29;20434;-92
2023/08/10 02:10:38;;;;;;;1.20;1.10;;;23.30;90.90;;;;;;4939945;29;20490;-91
2023/08/10 02:13:05;;;;;;;1.23;1.13;;;23.50;91.00;;;;;;4940247;29;20439;-91
2023/08/10 02:15:38;;;;;;;1.33;1.23;;;23.30;90.90;;;;;;4940119;29;20456;-91
2023/08/10 02:18:05;;;;;;;1.40;1.30;;;23.30;90.90;;;;;;4939767;29;20430;-92
2023/08/10 02:20:32;;;;;;;1.30;1.10;;;23.30;90.90;;;;;;4940222;29;20446;-92
2023/08/10 02:22:59;;;;;;;2.07;1.50;;;23.30;90.90;;;;;;4939881;29;20446;-92
2023/08/10 02:25:26;;;;;;;1.43;1.07;;;23.30;90.90;;;;;;4939947;29;20450;-92
2023/08/10 02:27:53;;;;;;;1.50;1.33;;;23.30;90.90;;;;;;4939875;29;20472;-91
2023/08/10 02:30:20;;;;;;;1.50;1.40;;;23.30;90.90;;;;;;4939612;29;20494;-92
2023/08/10 02:32:48;;;;;;;1.30;1.10;;;23.30;90.90;;;;;;4939962;29;20537;-91
2023/08/10 02:35:15;;;;;;;1.60;1.17;;;23.30;91.00;;;;;;4939832;29;20453;-91
2023/08/10 02:37:43;;;;;;;2.27;1.47;;;23.30;90.90;;;;;;4939801;29;20829;-93
2023/08/10 02:40:11;;;;;;;1.30;1.10;;;23.30;90.90;;;;;;4939669;29;20446;-90
2023/08/10 02:42:38;;;;;;;1.50;1.40;;;23.30;91.00;;;;;;4939469;29;20985;-91
2023/08/10 02:45:07;;;;;;;1.30;1.00;;;23.30;91.00;;;;;;4939574;29;20450;-91
2023/08/10 02:47:34;;;;;;;1.20;1.10;;;23.30;90.90;;;;;;4939455;29;20453;-91
2023/08/10 02:50:03;;;;;;;1.20;1.00;;;23.30;90.90;;;;;;4939155;29;21042;-93
2023/08/10 02:52:30;;;;;;;1.30;1.20;;;23.30;90.90;;;;;;4939204;29;20549;-90
2023/08/10 02:54:57;;;;;;;1.10;0.90;;;23.30;90.90;;;;;;4939000;29;20485;-91
2023/08/10 02:57:24;;;;;;;2.03;1.10;;;23.30;90.90;;;;;;4939334;29;20836;-91
2023/08/10 02:59:51;;;;;;;1.63;1.37;;;23.30;90.90;;;;;;4939491;29;20454;-91
2023/08/10 03:02:18;;;;;;;1.40;1.30;;;23.30;90.90;;;;;;4938994;29;20448;-90
2023/08/10 03:04:45;;;;;;;1.43;1.33;;;23.30;90.90;;;;;;4939150;29;20456;-90
2023/08/10 03:07:14;;;;;;;1.20;1.10;;;23.40;91.00;;;;;;4939017;29;20455;-90
2023/08/10 03:09:42;;;;;;;1.20;1.00;;;23.50;91.00;;;;;;4938838;29;20997;-91
2023/08/10 03:12:09;;;;;;;1.40;1.23;;;23.30;90.90;;;;;;4938981;29;20451;-91
2023/08/10 03:14:36;;;;;;;1.60;1.20;;;23.30;90.90;;;;;;4938965;29;20494;-90
2023/08/10 03:17:03;;;;;;;1.13;1.00;;;23.30;90.90;;;;;;4938995;29;20459;-89
2023/08/10 03:19:30;;;;;;;2.03;1.27;;;23.30;90.90;;;;;;4938721;29;20461;-89
2023/08/10 03:21:57;;;;;;;1.30;1.20;;;23.30;90.90;;;;;;4938613;29;20538;-91
2023/08/10 03:24:25;;;;;;;1.30;1.20;;;23.30;90.90;;;;;;4938482;29;20438;-89
2023/08/10 03:26:52;;;;;;;1.10;1.00;;;23.30;90.90;;;;;;4938730;29;20557;-91
2023/08/10 03:29:20;;;;;;;2.30;1.13;;;23.30;90.90;;;;;;4938786;29;20431;-89
2023/08/10 03:31:47;;;;;;;1.10;0.90;;;23.30;90.90;;;;;;4938629;29;20541;-89
2023/08/10 03:34:14;;;;;;;1.30;1.10;;;23.30;90.90;;;;;;4938488;29;20459;-91
2023/08/10 03:36:41;;;;;;;1.20;1.10;;;23.30;90.90;;;;;;4938382;29;20934;-91
2023/08/10 03:39:07;;;;;;;2.50;1.10;;;23.30;90.90;;;;;;4938796;29;20439;-91
2023/08/10 03:41:35;;;;;;;1.40;1.00;;;23.30;90.90;;;;;;4939032;29;20958;-90
2023/08/10 03:44:02;;;;;;;1.57;1.20;;;23.30;91.30;;;;;;4938708;29;20836;-91
2023/08/10 03:46:29;;;;;;;1.50;1.40;;;23.30;90.90;;;;;;4938397;29;20443;-92
2023/08/10 03:48:56;;;;;;;1.30;1.20;;;23.30;90.90;;;;;;4938432;29;20791;-90
2023/08/10 03:51:23;;;;;;;1.20;1.10;;;23.30;90.90;;;;;;4938392;29;20498;-90
2023/08/10 03:53:49;;;;;;;1.10;1.00;;;23.30;90.90;;;;;;4938045;29;20480;-90
2023/08/10 03:56:17;;;;;;;1.50;1.40;;;23.40;91.00;;;;;;4938130;29;20957;-90
2023/08/10 03:58:45;;;;;;;1.10;1.00;;;23.30;90.90;;;;;;4938045;29;20518;-91
2023/08/10 04:01:12;;;;;;;1.10;1.00;;;23.30;90.90;;;;;;4938243;29;20450;-90
2023/08/10 04:03:38;;;;;;;1.77;1.23;;;23.30;90.90;;;;;;4938347;29;20449;-90
2023/08/10 04:06:05;;;;;;;1.20;1.00;;;23.30;90.90;;;;;;4937901;29;20452;-91
2023/08/10 04:08:32;;;;;;;1.40;1.30;;;23.30;90.90;;;;;;4937875;29;20926;-90
2023/08/10 04:10:59;;;;;;;1.20;1.10;;;23.30;90.90;;;;;;4938043;29;20586;-92
2023/08/10 04:13:26;;;;;;;1.20;1.10;;;23.30;90.90;;;;;;4937988;29;20450;-90
2023/08/10 04:15:54;;;;;;;2.00;1.20;;;23.20;90.90;;;;;;4937753;29;20450;-90
2023/08/10 04:18:21;;;;;;;1.10;1.00;;;23.30;90.90;;;;;;4938068;29;20442;-90
2023/08/10 04:20:48;;;;;;;1.17;1.03;;;23.30;90.90;;;;;;4937696;29;20449;-90
2023/08/10 04:23:14;;;;;;;1.20;1.07;;;23.30;90.90;;;;;;4937758;29;20441;-90
2023/08/10 04:25:41;;;;;;;1.60;1.10;;;23.30;90.90;;;;;;4937781;29;20438;-91
2023/08/10 04:28:08;;;;;;;1.50;1.30;;;23.30;90.90;;;;;;4936937;29;20459;-89
2023/08/10 04:30:35;;;;;;;1.10;1.00;;;23.30;90.90;;;;;;4937290;29;20495;-89
2023/08/10 04:33:04;;;;;;;1.10;1.00;;;23.30;90.90;;;;;;4937550;29;20811;-90
2023/08/10 04:35:31;;;;;;;1.60;1.30;;;23.30;90.90;;;;;;4937525;29;20509;-91
2023/08/10 04:37:58;;;;;;;1.40;1.30;;;23.30;90.90;;;;;;4937413;29;20450;-90
2023/08/10 04:40:25;;;;;;;1.20;1.03;;;23.40;90.90;;;;;;4937519;29;20549;-90
2023/08/10 04:42:52;;;;;;;1.37;1.17;;;23.30;90.90;;;;;;4937575;29;20456;-90
2023/08/10 04:45:19;;;;;;;1.10;1.00;;;23.20;90.90;;;;;;4937332;29;20858;-90
2023/08/10 04:47:46;;;;;;;1.80;1.63;;;23.20;90.80;;;;;;4937109;29;20447;-90
2023/08/10 04:50:14;;;;;;;1.30;1.20;;;23.30;90.90;;;;;;4937199;29;20474;-91
2023/08/10 04:52:41;;;;;;;1.37;1.03;;;23.30;90.90;;;;;;4936942;29;20451;-90
2023/08/10 04:55:10;;;;;;;1.20;1.03;;;23.30;90.90;;;;;;4937477;29;20530;-90
2023/08/10 04:57:37;;;;;;;1.40;1.30;;;23.20;90.80;;;;;;4936914;29;21017;-92
2023/08/10 05:00:09;;;;;;;1.27;1.00;;;23.20;90.80;;;;;;4936945;29;20448;-90
2023/08/10 05:02:36;;;;;;;1.43;1.33;;;23.20;90.80;;;;;;4936708;29;20543;-90
2023/08/10 05:05:06;;;;;;;3.13;1.00;;;23.20;90.80;;;;;;4937058;29;20452;-90
2023/08/10 05:07:34;;;;;;;1.60;1.30;;;23.20;90.80;;;;;;4936831;29;20466;-91
2023/08/10 05:10:06;;;;;;;1.30;1.20;;;23.20;90.80;;;;;;4936710;29;20455;-92
2023/08/10 05:12:33;;;;;;;1.50;1.40;;;23.20;90.80;;;;;;4937062;29;20436;-91
2023/08/10 05:15:00;;;;;;;1.20;1.00;;;23.20;90.80;;;;;;4936731;29;20454;-90
2023/08/10 05:17:27;;;;;;;1.10;1.00;;;23.20;90.80;;;;;;4936849;29;20557;-91
2023/08/10 05:19:54;;;;;;;1.60;1.50;;;23.40;90.90;;;;;;4936830;29;20450;-90
2023/08/10 05:22:21;;;;;;;1.30;1.20;;;23.40;90.90;;;;;;4936635;29;20534;-91
2023/08/10 05:24:49;;;;;;;1.30;1.20;;;23.20;90.80;;;;;;4936417;29;20455;-90
2023/08/10 05:27:16;;;;;;;1.30;1.10;;;23.20;90.80;;;;;;4936370;29;20471;-92
2023/08/10 05:29:42;;;;;;;1.20;1.10;;;23.20;90.80;;;;;;4936452;29;20938;-88
2023/08/10 05:32:09;;;;;;;1.37;1.27;;;23.20;90.80;;;;;;4936369;29;20498;-90
2023/08/10 05:34:36;;;;;;;1.30;1.00;;;23.20;90.80;;;;;;4936519;29;20458;-90
2023/08/10 05:37:03;;;;;;;1.27;1.17;;;23.20;90.90;;;;;;4936605;29;20449;-92
2023/08/10 05:39:30;;;;;;;1.20;1.10;;;23.20;90.80;;;;;;4935407;29;20443;-89
2023/08/10 05:41:58;;;;;;;1.10;0.90;;;23.20;90.90;;;;;;4936133;29;20545;-91
2023/08/10 05:44:25;;;;;;;1.13;0.90;;;23.40;91.00;;;;;;4936220;29;20456;-92
2023/08/10 05:46:51;;;;;;;1.27;1.17;;;23.20;90.90;;;;;;4936502;29;20446;-89
2023/08/10 05:49:18;;;;;;;1.30;1.20;;;23.20;90.90;;;;;;4936573;29;20459;-89
2023/08/10 05:51:45;;;;;;;1.27;1.17;;;23.20;90.80;;;;;;4936163;29;21032;-89
2023/08/10 05:54:12;;;;;;;1.30;1.03;;;23.20;90.90;;;;;;4935873;29;20481;-92
2023/08/10 05:56:40;;;;;;;1.20;1.10;;;23.20;91.20;;;;;;4936461;29;20514;-89
2023/08/10 05:59:08;;;;;;;1.23;1.00;;;23.20;90.90;;;;;;4936408;29;20454;-89
2023/08/10 06:01:34;;;;;;;2.13;1.30;;;23.20;90.90;;;;;;4936236;29;20546;-89
2023/08/10 06:04:02;;;;;;;1.20;1.00;;;23.20;90.90;;;;;;4936143;29;20451;-91
2023/08/10 06:06:29;;;;;;;1.20;1.07;;;23.40;91.00;;;;;;4936718;29;20512;-91
2023/08/10 06:08:56;;;;;;;1.30;1.17;;;23.30;90.90;;;;;;4936400;29;20458;-92
2023/08/10 06:11:23;;;;;;;1.13;1.00;;;23.30;90.90;;;;;;4936364;29;20581;-93
2023/08/10 06:13:50;;;;;;;1.40;0.90;;;23.20;90.90;;;;;;4936502;29;20458;-90
2023/08/10 06:16:18;;;;;;;1.20;1.10;;;23.30;90.90;;;;;;4936353;29;20439;-92
2023/08/10 06:18:45;;;;;;;1.30;1.20;;;23.20;90.90;;;;;;4936030;29;20457;-91
2023/08/10 06:21:13;;;;;;;1.47;1.10;;;23.20;90.90;;;;;;4936065;29;20447;-89
2023/08/10 06:23:40;;;;;;;1.17;1.00;;;23.20;90.90;;;;;;4935906;29;20450;-90
2023/08/10 06:26:07;;;;;;;1.40;1.30;;;23.40;91.00;;;;;;4918810;29;20450;-91
2023/08/10 06:28:34;;;;;;;1.17;0.90;;;23.20;90.90;;;;;;4936045;29;20458;-92
2023/08/10 06:31:01;;;;;;;1.63;1.20;;;23.20;90.90;;;;;;4936099;29;20490;-92
2023/08/10 06:33:32;;;;;;;1.27;1.10;;;23.20;90.90;;;;;;4936306;29;20514;-92
2023/08/10 06:35:59;;;;;;;1.00;0.90;;;23.30;90.90;;;;;;4936167;29;20454;-92
2023/08/10 06:38:26;;;;;;;1.40;1.30;;;23.20;90.90;;;;;;4936410;29;20443;-93
2023/08/10 06:40:55;;;;;;;1.10;0.90;;;23.30;90.90;;;;;;4936084;29;20554;-92
2023/08/10 06:43:22;;;;;;;1.53;1.03;;;23.20;90.90;;;;;;4935878;29;20454;-93
2023/08/10 06:45:49;;;;;;;1.30;1.20;;;23.30;90.90;;;;;;4936041;29;20439;-89
2023/08/10 06:48:15;;;;;;;1.60;1.23;;;23.30;90.90;;;;;;4936179;29;20450;-91
2023/08/10 06:50:44;;;;;;;1.40;0.90;;;23.30;90.90;;;;;;4938119;29;20484;-89
2023/08/10 06:53:11;;;;;;;1.20;0.97;;;23.30;90.90;;;;;;4939164;29;20491;-92
2023/08/10 06:55:38;;;;;;;1.20;1.10;;;23.30;90.90;;;;;;4939101;29;20453;-92
2023/08/10 06:58:05;;;;;;;1.30;1.13;;;23.30;90.90;;;;;;4939284;29;20535;-92
2023/08/10 07:00:32;;;;;;;1.20;1.03;;;23.30;90.90;;;;;;4939673;29;20455;-93
2023/08/10 07:02:59;;;;;;;1.53;1.00;;;23.30;90.90;;;;;;4939501;29;20443;-90
2023/08/10 07:05:27;;;;;;;1.10;1.00;;;23.30;90.90;;;;;;4939030;29;20562;-91
2023/08/10 07:07:55;;;;;;;1.20;1.10;;;23.30;90.90;;;;;;4939045;29;20446;-89
2023/08/10 07:10:22;;;;;;;1.20;0.80;;;23.30;90.90;;;;;;4939199;29;20950;-93
2023/08/10 07:12:49;;;;;;;1.27;1.07;;;23.40;90.90;;;;;;4939024;29;20447;-91
2023/08/10 07:15:17;;;;;;;2.10;1.30;;;23.30;90.90;;;;;;4938963;29;21008;-89
2023/08/10 07:17:44;;;;;;;1.30;1.13;;;23.30;90.90;;;;;;4938895;29;20537;-90
2023/08/10 07:20:12;;;;;;;1.47;1.17;;;23.40;90.90;;;;;;4938847;29;20453;-91
2023/08/10 07:22:45;;;;;;;1.40;0.90;;;23.40;90.90;;;;;;4939204;29;20456;-93
2023/08/10 07:25:14;;;;;;;1.43;1.30;;;23.40;90.90;;;;;;4939116;29;20435;-92
2023/08/10 07:27:41;;;;;;;1.33;1.20;;;23.40;91.00;;;;;;4939067;29;20476;-92
2023/08/10 07:30:09;;;;;;;1.37;1.17;;;23.40;91.00;;;;;;4938917;29;20440;-91
2023/08/10 07:32:36;;;;;;;1.13;0.90;;;23.40;91.00;;;;;;4938554;29;20490;-92
2023/08/10 07:35:03;;;;;;;1.20;0.90;;;23.40;91.00;;;;;;4938832;29;20501;-91
2023/08/10 07:37:30;;;;;;;1.37;0.90;;;23.40;91.00;;;;;;4939073;29;20442;-93
2023/08/10 07:40:04;;;;;;;1.10;0.90;;;23.40;91.00;;;;;;4942862;29;20443;-95
2023/08/10 07:42:33;;;;;;;1.20;1.00;;;23.40;91.00;;;;;;4951598;23;20490;-92
2023/08/10 07:45:00;;;;;;;3.03;1.60;;;23.40;91.00;;;;;;4939055;29;20938;-93
2023/08/10 07:47:26;;;;;;;2.80;1.87;;;23.40;90.70;;;;;;4938753;29;20448;-92
2023/08/10 07:49:57;;;;;;;2.43;1.73;;;23.40;90.10;;;;;;4941338;29;20514;-93
2023/08/10 07:52:24;;;;;;;7.07;1.67;;;23.40;89.50;;;;;;4929188;29;21244;-89
2023/08/10 07:54:51;;;;;;;4.40;2.23;;;23.40;89.10;;;;;;4938197;29;20453;-91
2023/08/10 07:57:18;;;;;;;5.63;2.20;;;23.40;88.80;;;;;;4949067;29;20456;-91
2023/08/10 07:59:46;;;;;;;2.23;1.73;;;23.30;89.20;;;;;;4957659;29;20553;-91
2023/08/10 08:02:12;;;;;;;5.00;2.23;;;23.30;89.00;;;;;;4956260;28;20439;-91
2023/08/10 08:04:39;;;;;;;3.87;2.00;;;23.30;87.70;;;;;;4957585;29;20441;-89
2023/08/10 08:07:06;;;;;;;4.00;2.43;;;23.30;87.50;;;;;;4957291;29;20547;-91
2023/08/10 08:09:33;;;;;;;4.20;2.40;;;23.30;87.50;;;;;;4957633;29;20446;-90
2023/08/10 08:12:00;;;;;;;4.30;1.90;;;23.30;87.60;;;;;;4957256;29;20493;-91
2023/08/10 08:14:26;;;;;;;4.83;2.20;;;23.30;87.50;;;;;;4957458;29;20443;-91
2023/08/10 08:16:55;;;;;;;5.90;1.80;;;23.30;87.60;;;;;;4957376;29;20430;-91
2023/08/10 08:19:21;;;;;;;3.37;2.20;;;23.40;87.80;;;;;;4957150;29;21003;-91
2023/08/10 08:21:48;;;;;;;2.10;1.90;;;23.30;88.10;;;;;;4956833;29;20448;-91
2023/08/10 08:24:17;;;;;;;3.30;1.93;;;23.30;87.20;;;;;;4957321;29;20501;-90
2023/08/10 08:26:43;;;;;;;2.80;1.73;;;23.30;87.90;;;;;;4957638;28;20480;-90
2023/08/10 08:29:11;;;;;;;2.40;1.50;;;23.30;88.70;;;;;;4956684;29;20439;-90
2023/08/10 08:31:38;;;;;;;3.20;1.50;;;23.30;88.90;;;;;;4957762;29;20544;-92
2023/08/10 08:34:06;;;;;;;3.60;1.97;;;23.30;89.30;;;;;;4958285;29;20543;-95
2023/08/10 08:36:33;;;;;;;2.07;1.50;;;23.30;89.40;;;;;;4957123;29;20457;-90
2023/08/10 08:39:00;;;;;;;7.97;2.33;;;23.30;89.50;;;;;;4957350;29;20546;-91
2023/08/10 08:41:30;;;;;;;6.47;1.80;;;23.30;88.60;;;;;;4956580;29;20484;-92
2023/08/10 08:43:57;;;;;;;3.00;1.70;;;23.30;88.40;;;;;;4957272;29;20441;-90
2023/08/10 08:46:29;;;;;;;2.27;1.37;;;23.40;88.50;;;;;;4957031;29;21020;-89
2023/08/10 08:48:57;;;;;;;2.80;1.60;;;23.40;88.60;;;;;;4957268;29;20823;-93
2023/08/10 08:51:25;;;;;;;5.60;2.10;;;23.40;88.60;;;;;;4957264;29;20489;-94
2023/08/10 08:53:53;;;;;;;3.10;1.60;;;23.40;87.60;;;;;;4957302;29;20449;-92
2023/08/10 08:56:21;;;;;;;3.97;1.97;;;23.50;87.40;;;;;;4960525;28;20466;-94
2023/08/10 08:58:53;;;;;;;1.70;1.60;;;23.40;87.60;;;;;;4973297;28;20534;-95
2023/08/10 09:01:21;;;;;;;3.70;1.70;;;23.60;88.20;;;;;;4961364;29;20435;-90
2023/08/10 09:03:49;;;;;;;2.90;1.60;;;23.50;88.40;;;;;;4957569;29;20472;-95
2023/08/10 09:06:16;;;;;;;3.00;1.67;;;23.40;88.40;;;;;;4956891;29;20445;-88
2023/08/10 09:08:44;;;;;;;3.63;1.53;;;23.40;88.60;;;;;;4956636;29;20469;-86
2023/08/10 09:11:11;;;;;;;2.80;2.00;;;23.40;88.80;;;;;;4957027;29;20446;-96
2023/08/10 09:13:38;;;;;;;4.83;1.93;;;23.40;89.00;;;;;;4961425;28;20815;-86
2023/08/10 09:16:07;;;;;;;3.27;1.50;;;23.40;89.00;;;;;;4957816;29;20537;-88
2023/08/10 09:18:35;;;;;;;1.60;1.50;;;23.50;89.30;;;;;;4956598;29;20453;-85
2023/08/10 09:21:15;;;;;;;3.10;1.80;;;23.50;89.30;;;;;;4955936;29;20532;-83
2023/08/10 09:23:45;;;;;;;3.00;1.60;;;23.50;89.30;;;;;;4955813;29;20943;-86
2023/08/10 09:26:16;;;;;;;4.60;1.83;;;23.50;89.40;;;;;;4955306;28;20469;-84
2023/08/10 09:28:42;;;;;;;5.20;1.90;;;23.50;89.20;;;;;;4954877;29;20814;-86
2023/08/10 09:31:11;;;;;;;2.87;1.57;;;23.50;89.20;;;;;;4955466;29;20803;-91
2023/08/10 09:33:39;;;;;;;3.70;1.60;;;23.50;89.30;;;;;;4955841;29;20454;-94
2023/08/10 09:36:08;;;;;;;2.97;1.87;;;23.50;89.30;;;;;;4955588;29;20807;-93
2023/08/10 09:38:35;;;;;;;3.30;2.20;;;23.50;89.20;;;;;;4955911;29;20454;-91
2023/08/10 09:41:10;;;;;;;2.87;2.03;;;23.50;89.10;;;;;;4955901;29;20509;-83
2023/08/10 09:43:38;;;;;;;3.67;2.10;;;23.50;89.10;;;;;;4955790;29;20452;-87
2023/08/10 09:46:06;;;;;;;4.43;1.97;;;23.50;89.10;;;;;;4956285;29;20451;-85
2023/08/10 09:48:36;;;;;;;4.23;2.00;;;23.50;89.00;;;;;;4958707;29;20449;-91
2023/08/10 09:51:04;;;;;;;2.00;1.50;;;23.50;89.00;;;;;;4956886;29;20441;-91
2023/08/10 09:53:33;;;;;;;2.60;2.27;;;23.60;88.90;;;;;;4956212;29;20497;-93
2023/08/10 09:56:00;;;;;;;2.47;1.63;;;23.50;88.80;;;;;;4956755;28;20449;-89
2023/08/10 09:58:28;;;;;;;3.30;1.80;;;23.60;88.80;;;;;;4955669;29;20464;-84
2023/08/10 10:00:56;;;;;;;2.77;1.67;;;23.70;88.90;;;;;;4955614;29;20450;-85
2023/08/10 10:03:28;;;;;;;5.10;2.47;;;23.60;89.00;;;;;;4955494;29;20448;-84
2023/08/10 10:05:55;;;;;;;3.30;1.83;;;23.60;89.00;;;;;;4955502;29;21004;-84
2023/08/10 10:08:22;;;;;;;2.10;1.50;;;23.60;89.10;;;;;;4955629;29;20520;-88
2023/08/10 10:10:50;;;;;;;4.00;1.40;;;23.60;89.10;;;;;;4955470;29;20437;-84
2023/08/10 10:13:17;;;;;;;2.90;1.60;;;23.60;89.20;;;;;;4955362;29;20492;-92
2023/08/10 10:15:46;;;;;;;3.50;2.10;;;23.60;89.30;;;;;;4954880;29;20449;-89
2023/08/10 10:18:14;;;;;;;2.47;1.60;;;23.60;89.40;;;;;;4954396;29;20453;-84
2023/08/10 10:20:42;;;;;;;5.80;1.83;;;23.60;89.70;;;;;;4954398;29;20454;-85
2023/08/10 10:23:15;;;;;;;2.70;1.43;;;23.60;89.60;;;;;;4956496;29;20450;-85
2023/08/10 10:25:56;;;;;;;2.03;1.73;;;23.60;89.70;;;;;;4959545;28;20450;-86
2023/08/10 10:28:23;;;;;;;4.97;2.03;;;23.60;89.70;;;;;;4961366;29;21069;-86
2023/08/10 10:31:06;;;;;;;3.33;2.07;;;23.60;89.90;;;;;;4943864;29;20439;-85
2023/08/10 10:33:34;;;;;;;3.40;1.47;;;23.60;90.00;;;;;;4957954;29;20579;-88
2023/08/10 10:36:10;;;;;;;2.40;1.63;;;23.60;90.00;;;;;;4961508;29;20487;-85
2023/08/10 10:38:39;;;;;;;4.60;1.43;;;23.50;89.90;;;;;;4961359;29;20449;-85
2023/08/10 10:41:10;;;;;;;1.87;1.50;;;23.60;90.00;;;;;;4961103;28;20495;-87
2023/08/10 10:43:39;;;;;;;2.27;1.40;;;23.60;90.00;;;;;;4961815;29;20931;-84
2023/08/10 10:46:08;;;;;;;1.77;1.60;;;23.60;90.10;;;;;;4961611;29;20460;-84
2023/08/10 10:48:37;;;;;;;4.23;1.50;;;23.60;90.20;;;;;;4942583;29;20470;-84
2023/08/10 10:51:04;;;;;;;1.57;1.40;;;23.60;90.20;;;;;;4953237;29;20938;-85
2023/08/10 10:53:33;;;;;;;4.63;1.17;;;23.50;90.20;;;;;;4960591;29;20496;-84
2023/08/10 10:56:00;;;;;;;4.53;1.73;;;23.60;90.30;;;;;;4959953;29;20478;-86
2023/08/10 10:58:30;;;;;;;2.33;1.57;;;23.60;90.30;;;;;;4960234;29;20449;-84
2023/08/10 11:00:58;;;;;;;2.77;1.37;;;23.60;90.30;;;;;;4961217;29;20447;-90
2023/08/10 11:03:29;;;;;;;2.00;1.40;;;23.50;90.30;;;;;;4966400;29;20444;-88
2023/08/10 11:05:56;;;;;;;2.67;1.50;;;23.60;90.50;;;;;;4961371;29;20470;-85
2023/08/10 11:08:24;;;;;;;3.37;1.70;;;23.60;90.50;;;;;;4959468;29;20452;-88
2023/08/10 11:10:52;;;;;;;1.47;1.23;;;23.50;90.40;;;;;;4960957;29;20464;-90
2023/08/10 11:13:21;;;;;;;1.33;1.23;;;23.50;90.40;;;;;;4964692;29;20489;-86
2023/08/10 11:15:49;;;;;;;1.40;1.30;;;23.50;90.40;;;;;;4962961;29;20544;-89
2023/08/10 11:18:21;;;;;;;1.50;1.10;;;23.50;90.50;;;;;;4961349;29;20441;-87
2023/08/10 11:20:51;;;;;;;3.30;1.70;;;23.50;90.50;;;;;;4960091;29;20829;-86
2023/08/10 11:23:18;;;;;;;2.30;1.40;;;23.50;90.50;;;;;;4960090;29;20834;-89
2023/08/10 11:25:49;;;;;;;2.17;1.30;;;23.50;90.50;;;;;;4961087;28;20446;-88
2023/08/10 11:28:19;;;;;;;2.43;1.30;;;23.50;90.50;;;;;;4961583;29;20856;-86
2023/08/10 11:30:46;;;;;;;5.03;1.70;;;23.50;90.50;;;;;;4961342;29;20493;-86
2023/08/10 11:33:14;;;;;;;1.40;1.20;;;23.50;90.50;;;;;;4960939;29;20494;-87
2023/08/10 11:35:44;;;;;;;1.50;1.10;;;23.60;90.50;;;;;;4959357;28;20940;-86
2023/08/10 11:38:12;;;;;;;2.10;1.40;;;23.60;90.60;;;;;;4959649;29;20525;-90
2023/08/10 11:40:40;;;;;;;1.80;1.30;;;23.50;90.50;;;;;;4960003;29;20842;-86
2023/08/10 11:43:11;;;;;;;1.17;0.97;;;23.60;90.50;;;;;;4959536;29;20486;-86
2023/08/10 11:45:39;;;;;;;1.40;1.17;;;23.50;90.50;;;;;;4959706;29;20431;-86
2023/08/10 11:48:09;;;;;;;2.47;1.43;;;23.50;90.50;;;;;;4959726;29;20937;-86
2023/08/10 11:50:38;;;;;;;1.60;1.20;;;23.50;90.50;;;;;;4959422;29;20440;-88
2023/08/10 11:53:11;;;;;;;1.77;1.20;;;23.50;90.50;;;;;;4959392;29;20477;-87
2023/08/10 11:55:44;;;;;;;1.30;1.00;;;23.50;90.50;;;;;;4959818;28;20474;-89
2023/08/10 11:58:13;;;;;;;1.60;1.37;;;23.60;90.60;;;;;;4960151;29;20438;-86
2023/08/10 12:00:42;;;;;;;3.20;1.90;;;23.60;90.70;;;;;;4959624;29;20444;-88
2023/08/10 12:03:11;;;;;;;2.10;1.40;;;23.60;90.70;;;;;;4959590;29;20794;-86
2023/08/10 12:05:44;;;;;;;1.40;1.03;;;23.50;90.60;;;;;;4959125;29;20441;-86
2023/08/10 12:08:13;;;;;;;1.80;1.40;;;23.60;90.70;;;;;;4959477;29;20929;-85
2023/08/10 12:10:42;;;;;;;1.93;1.37;;;23.60;90.70;;;;;;4959238;29;20472;-86
2023/08/10 12:13:14;;;;;;;1.77;1.50;;;23.60;90.70;;;;;;4958943;29;20923;-86
2023/08/10 12:15:46;;;;;;;1.83;1.57;;;23.50;90.70;;;;;;4958620;29;20457;-87
2023/08/10 12:18:15;;;;;;;1.83;1.00;;;23.60;90.70;;;;;;4959103;29;20449;-87
2023/08/10 12:20:43;;;;;;;1.30;1.07;;;23.60;90.70;;;;;;4958098;29;20450;-85
2023/08/10 12:23:10;;;;;;;2.60;1.40;;;23.60;90.80;;;;;;4960630;29;20445;-85
2023/08/10 12:25:37;;;;;;;7.57;1.50;;;23.50;90.70;;;;;;4958336;29;20442;-85
2023/08/10 12:28:06;;;;;;;1.90;1.20;;;23.60;90.80;;;;;;4958341;29;20441;-85
2023/08/10 12:30:35;;;;;;;2.13;1.40;;;23.60;90.70;;;;;;4958646;29;20515;-81
2023/08/10 12:33:02;;;;;;;2.83;1.50;;;23.50;90.70;;;;;;4956554;29;20481;-83
2023/08/10 12:35:29;;;;;;;1.43;1.30;;;23.60;90.80;;;;;;4956941;29;20446;-87
2023/08/10 12:37:56;;;;;;;1.57;1.30;;;23.60;90.90;;;;;;4956529;29;21025;-83
2023/08/10 12:40:23;;;;;;;1.30;1.07;;;23.60;90.80;;;;;;4957460;29;20520;-83
2023/08/10 12:42:51;;;;;;;1.50;1.30;;;23.70;90.90;;;;;;4956349;28;20472;-83
2023/08/10 12:45:18;;;;;;;2.50;1.40;;;23.60;90.80;;;;;;4956914;29;20438;-83
2023/08/10 12:47:46;;;;;;;1.60;1.03;;;23.70;90.80;;;;;;4957054;28;20534;-84
2023/08/10 12:50:15;;;;;;;2.73;1.30;;;23.70;90.90;;;;;;4958504;29;20438;-83
2023/08/10 12:52:43;;;;;;;5.40;1.37;;;23.70;90.80;;;;;;4958055;29;20486;-83